sensor_id;sensor_type;location;lat;lon;timestamp;pressure;altitude;pressure_sealevel;temperature;humidity
75418;BME280;63997;52.112;5.420;2023-08-06T00:01:22;100555.66;;;15.38;95.91
75418;BME280;63997;52.112;5.420;2023-08-06T00:03:49;100549.88;;;15.35;95.81
75418;BME280;63997;52.112;5.420;2023-08-06T00:06:15;100553.69;;;15.34;95.86
75418;BME280;63997;52.112;5.420;2023-08-06T00:08:42;100546.78;;;15.33;95.77
75418;BME280;63997;52.112;5.420;2023-08-06T00:11:08;100544.88;;;15.34;95.88
75418;BME280;63997;52.112;5.420;2023-08-06T00:13:35;100540.66;;;15.33;96.00
75418;BME280;63997;52.112;5.420;2023-08-06T00:16:12;100551.38;;;15.33;95.90
75418;BME280;63997;52.112;5.420;2023-08-06T00:18:40;100542.56;;;15.32;95.89
75418;BME280;63997;52.112;5.420;2023-08-06T00:21:07;100542.19;;;15.34;96.26
75418;BME280;63997;52.112;5.420;2023-08-06T00:23:36;100548.69;;;15.33;96.15
75418;BME280;63997;52.112;5.420;2023-08-06T00:26:02;100540.97;;;15.31;96.18
75418;BME280;63997;52.112;5.420;2023-08-06T00:28:29;100539.09;;;15.32;96.08
75418;BME280;63997;52.112;5.420;2023-08-06T00:30:56;100542.56;;;15.32;96.17
75418;BME280;63997;52.112;5.420;2023-08-06T00:33:23;100544.47;;;15.32;95.95
75418;BME280;63997;52.112;5.420;2023-08-06T00:35:50;100537.97;;;15.33;96.29
75418;BME280;63997;52.112;5.420;2023-08-06T00:38:16;100545.63;;;15.34;96.22
75418;BME280;63997;52.112;5.420;2023-08-06T00:40:43;100544.09;;;15.33;96.00
75418;BME280;63997;52.112;5.420;2023-08-06T00:43:10;100542.97;;;15.34;96.06
75418;BME280;63997;52.112;5.420;2023-08-06T00:45:37;100540.28;;;15.34;96.17
75418;BME280;63997;52.112;5.420;2023-08-06T00:48:05;100539.50;;;15.34;96.24
75418;BME280;63997;52.112;5.420;2023-08-06T00:50:32;100546.00;;;15.33;96.16
75418;BME280;63997;52.112;5.420;2023-08-06T00:52:58;100538.31;;;15.31;96.13
75418;BME280;63997;52.112;5.420;2023-08-06T00:55:25;100546.00;;;15.33;96.07
75418;BME280;63997;52.112;5.420;2023-08-06T00:57:52;100540.97;;;15.31;95.89
75418;BME280;63997;52.112;5.420;2023-08-06T01:00:22;100541.34;;;15.30;95.93
75418;BME280;63997;52.112;5.420;2023-08-06T01:02:50;100540.56;;;15.29;95.47
75418;BME280;63997;52.112;5.420;2023-08-06T01:05:18;100533.69;;;15.28;95.86
75418;BME280;63997;52.112;5.420;2023-08-06T01:13:45;100536.44;;;15.32;95.66
75418;BME280;63997;52.112;5.420;2023-08-06T01:16:18;100527.59;;;15.31;95.79
75418;BME280;63997;52.112;5.420;2023-08-06T01:18:47;100532.94;;;15.31;95.69
75418;BME280;63997;52.112;5.420;2023-08-06T01:21:16;100536.44;;;15.32;95.87
75418;BME280;63997;52.112;5.420;2023-08-06T01:23:43;100529.50;;;15.31;95.66
75418;BME280;63997;52.112;5.420;2023-08-06T01:26:15;100525.28;;;15.30;95.95
75418;BME280;63997;52.112;5.420;2023-08-06T01:28:52;100530.63;;;15.30;96.00
75418;BME280;63997;52.112;5.420;2023-08-06T01:31:26;100527.94;;;15.30;96.00
75418;BME280;63997;52.112;5.420;2023-08-06T01:33:53;100536.75;;;15.30;96.12
75418;BME280;63997;52.112;5.420;2023-08-06T01:36:22;100534.84;;;15.31;96.12
75418;BME280;63997;52.112;5.420;2023-08-06T01:38:51;100532.16;;;15.31;96.08
75418;BME280;63997;52.112;5.420;2023-08-06T01:41:18;100533.31;;;15.30;96.27
75418;BME280;63997;52.112;5.420;2023-08-06T01:43:44;100527.59;;;15.31;96.33
75418;BME280;63997;52.112;5.420;2023-08-06T01:46:11;100536.75;;;15.30;96.36
75418;BME280;63997;52.112;5.420;2023-08-06T01:48:37;100535.63;;;15.31;96.39
75418;BME280;63997;52.112;5.420;2023-08-06T01:51:04;100531.78;;;15.29;96.18
75418;BME280;63997;52.112;5.420;2023-08-06T01:53:32;100537.13;;;15.29;96.51
75418;BME280;63997;52.112;5.420;2023-08-06T01:55:59;100537.13;;;15.29;96.18
75418;BME280;63997;52.112;5.420;2023-08-06T01:58:25;100537.91;;;15.29;96.50
75418;BME280;63997;52.112;5.420;2023-08-06T02:00:52;100540.56;;;15.29;96.24
75418;BME280;63997;52.112;5.420;2023-08-06T02:03:18;100542.84;;;15.27;96.18
75418;BME280;63997;52.112;5.420;2023-08-06T02:05:45;100542.06;;;15.27;96.43
75418;BME280;63997;52.112;5.420;2023-08-06T02:08:12;100543.63;;;15.28;96.71
75418;BME280;63997;52.112;5.420;2023-08-06T02:10:38;100536.72;;;15.27;97.00
75418;BME280;63997;52.112;5.420;2023-08-06T02:13:05;100535.94;;;15.26;96.99
75418;BME280;63997;52.112;5.420;2023-08-06T02:15:31;100541.31;;;15.26;97.02
75418;BME280;63997;52.112;5.420;2023-08-06T02:17:57;100536.72;;;15.27;97.21
75418;BME280;63997;52.112;5.420;2023-08-06T02:20:24;100536.72;;;15.27;97.21
75418;BME280;63997;52.112;5.420;2023-08-06T02:22:50;100535.94;;;15.26;97.39
75418;BME280;63997;52.112;5.420;2023-08-06T02:25:17;100535.16;;;15.26;97.29
75418;BME280;63997;52.112;5.420;2023-08-06T02:27:43;100540.50;;;15.26;97.48
75418;BME280;63997;52.112;5.420;2023-08-06T02:30:10;100532.47;;;15.26;97.38
75418;BME280;63997;52.112;5.420;2023-08-06T02:32:36;100534.38;;;15.25;97.60
75418;BME280;63997;52.112;5.420;2023-08-06T02:35:03;100535.16;;;15.26;97.61
75418;BME280;63997;52.112;5.420;2023-08-06T02:37:29;100535.16;;;15.26;97.88
75418;BME280;63997;52.112;5.420;2023-08-06T02:39:56;100534.38;;;15.25;97.59
75418;BME280;63997;52.112;5.420;2023-08-06T02:42:22;100536.72;;;15.27;97.58
75418;BME280;63997;52.112;5.420;2023-08-06T02:44:49;100528.69;;;15.27;97.63
75418;BME280;63997;52.112;5.420;2023-08-06T02:47:16;100532.91;;;15.28;97.73
75418;BME280;63997;52.112;5.420;2023-08-06T02:49:43;100527.53;;;15.28;97.79
75418;BME280;63997;52.112;5.420;2023-08-06T02:52:09;100524.88;;;15.28;97.56
75418;BME280;63997;52.112;5.420;2023-08-06T02:54:36;100524.88;;;15.28;97.56
75418;BME280;63997;52.112;5.420;2023-08-06T02:57:03;100526.00;;;15.27;97.40
75418;BME280;63997;52.112;5.420;2023-08-06T02:59:32;100524.88;;;15.28;97.52
75418;BME280;63997;52.112;5.420;2023-08-06T03:01:59;100523.31;;;15.27;97.69
75418;BME280;63997;52.112;5.420;2023-08-06T03:04:25;100516.06;;;15.27;97.48
75418;BME280;63997;52.112;5.420;2023-08-06T03:06:52;100516.81;;;15.28;97.49
75418;BME280;63997;52.112;5.420;2023-08-06T03:09:18;100509.94;;;15.27;97.54
75418;BME280;63997;52.112;5.420;2023-08-06T03:11:45;100514.16;;;15.28;97.58
75418;BME280;63997;52.112;5.420;2023-08-06T03:14:11;100514.16;;;15.28;97.30
75418;BME280;63997;52.112;5.420;2023-08-06T03:16:38;100509.94;;;15.27;97.54
75418;BME280;63997;52.112;5.420;2023-08-06T03:19:04;100515.28;;;15.27;97.65
75418;BME280;63997;52.112;5.420;2023-08-06T03:21:30;100514.16;;;15.28;97.40
75418;BME280;63997;52.112;5.420;2023-08-06T03:23:57;100514.16;;;15.28;97.33
75418;BME280;63997;52.112;5.420;2023-08-06T03:26:23;100516.06;;;15.27;97.72
75418;BME280;63997;52.112;5.420;2023-08-06T03:28:49;100510.34;;;15.29;97.64
75418;BME280;63997;52.112;5.420;2023-08-06T03:31:16;100513.00;;;15.29;97.75
75418;BME280;63997;52.112;5.420;2023-08-06T03:33:43;100513.00;;;15.29;97.57
75418;BME280;63997;52.112;5.420;2023-08-06T03:36:09;100516.06;;;15.27;97.44
75418;BME280;63997;52.112;5.420;2023-08-06T03:38:36;100515.63;;;15.25;97.59
75418;BME280;63997;52.112;5.420;2023-08-06T03:41:02;100521.75;;;15.26;97.33
75418;BME280;63997;52.112;5.420;2023-08-06T03:43:29;100513.72;;;15.26;97.51
75418;BME280;63997;52.112;5.420;2023-08-06T03:45:56;100516.34;;;15.22;97.11
75418;BME280;63997;52.112;5.420;2023-08-06T03:48:22;100515.91;;;15.20;97.53
75418;BME280;63997;52.112;5.420;2023-08-06T03:50:48;100523.63;;;15.22;97.52
75418;BME280;63997;52.112;5.420;2023-08-06T03:53:15;100519.41;;;15.21;97.55
75418;BME280;63997;52.112;5.420;2023-08-06T03:55:41;100522.47;;;15.23;97.55
75418;BME280;63997;52.112;5.420;2023-08-06T03:58:08;100519.81;;;15.23;97.25
75418;BME280;63997;52.112;5.420;2023-08-06T04:00:34;100518.25;;;15.22;97.60
75418;BME280;63997;52.112;5.420;2023-08-06T04:03:01;100520.56;;;15.23;97.59
75418;BME280;63997;52.112;5.420;2023-08-06T04:05:31;100521.34;;;15.24;97.27
75418;BME280;63997;52.112;5.420;2023-08-06T04:07:57;100525.56;;;15.25;97.43
75418;BME280;63997;52.112;5.420;2023-08-06T04:10:24;100513.69;;;15.22;97.54
75418;BME280;63997;52.112;5.420;2023-08-06T04:12:50;100512.91;;;15.22;97.26
75418;BME280;63997;52.112;5.420;2023-08-06T04:15:17;100513.25;;;15.20;97.71
75418;BME280;63997;52.112;5.420;2023-08-06T04:17:43;100516.34;;;15.22;97.38
75418;BME280;63997;52.112;5.420;2023-08-06T04:20:10;100522.88;;;15.25;97.81
75418;BME280;63997;52.112;5.420;2023-08-06T04:22:36;100520.66;;;15.27;97.41
75418;BME280;63997;52.112;5.420;2023-08-06T04:25:03;100526.00;;;15.27;97.66
75418;BME280;63997;52.112;5.420;2023-08-06T04:27:29;100522.19;;;15.28;97.17
75418;BME280;63997;52.112;5.420;2023-08-06T04:29:56;100521.41;;;15.27;97.18
75418;BME280;63997;52.112;5.420;2023-08-06T04:32:22;100521.41;;;15.27;97.31
75418;BME280;63997;52.112;5.420;2023-08-06T04:34:48;100532.91;;;15.28;97.51
75418;BME280;63997;52.112;5.420;2023-08-06T04:37:15;100529.78;;;15.26;97.32
75418;BME280;63997;52.112;5.420;2023-08-06T04:39:41;100532.84;;;15.24;97.35
75418;BME280;63997;52.112;5.420;2023-08-06T04:42:08;100533.59;;;15.25;97.16
75418;BME280;63997;52.112;5.420;2023-08-06T04:44:34;100539.69;;;15.22;97.11
75418;BME280;63997;52.112;5.420;2023-08-06T04:47:01;100543.50;;;15.21;97.51
75418;BME280;63997;52.112;5.420;2023-08-06T04:49:27;100542.78;;;15.24;97.39
75418;BME280;63997;52.112;5.420;2023-08-06T04:51:53;100542.06;;;15.27;97.57
75418;BME280;63997;52.112;5.420;2023-08-06T04:54:20;100547.47;;;15.30;97.58
75418;BME280;63997;52.112;5.420;2023-08-06T04:56:47;100539.09;;;15.32;97.70
75418;BME280;63997;52.112;5.420;2023-08-06T04:59:13;100545.28;;;15.36;97.40
75418;BME280;63997;52.112;5.420;2023-08-06T05:01:40;100546.13;;;15.40;97.25
75418;BME280;63997;52.112;5.420;2023-08-06T05:04:06;100549.94;;;15.39;97.55
75418;BME280;63997;52.112;5.420;2023-08-06T05:06:32;100547.28;;;15.43;97.58
75418;BME280;63997;52.112;5.420;2023-08-06T05:08:59;100551.88;;;15.42;97.42
75418;BME280;63997;52.112;5.420;2023-08-06T05:11:25;100555.31;;;15.43;97.58
75418;BME280;63997;52.112;5.420;2023-08-06T05:13:52;100549.56;;;15.41;97.56
75418;BME280;63997;52.112;5.420;2023-08-06T05:16:18;100559.50;;;15.40;97.64
75418;BME280;63997;52.112;5.420;2023-08-06T05:18:45;100562.97;;;15.41;97.27
75418;BME280;63997;52.112;5.420;2023-08-06T05:21:11;100559.16;;;15.42;97.46
75418;BME280;63997;52.112;5.420;2023-08-06T05:23:38;100569.09;;;15.41;97.55
75418;BME280;63997;52.112;5.420;2023-08-06T05:26:08;100573.75;;;15.44;97.60
75418;BME280;63997;52.112;5.420;2023-08-06T05:28:38;100571.06;;;15.44;97.42
75418;BME280;63997;52.112;5.420;2023-08-06T05:31:05;100577.19;;;15.45;97.66
75418;BME280;63997;52.112;5.420;2023-08-06T05:33:31;100577.59;;;15.47;97.83
75418;BME280;63997;52.112;5.420;2023-08-06T05:35:58;100575.69;;;15.47;97.80
75418;BME280;63997;52.112;5.420;2023-08-06T05:38:24;100582.59;;;15.48;97.59
75418;BME280;63997;52.112;5.420;2023-08-06T05:40:51;100583.75;;;15.47;97.47
75418;BME280;63997;52.112;5.420;2023-08-06T05:43:17;100582.94;;;15.43;97.37
75418;BME280;63997;52.112;5.420;2023-08-06T05:45:45;100590.53;;;15.41;97.26
75418;BME280;63997;52.112;5.420;2023-08-06T05:48:12;100588.28;;;15.43;97.32
75418;BME280;63997;52.112;5.420;2023-08-06T05:50:39;100591.31;;;15.42;97.25
75418;BME280;63997;52.112;5.420;2023-08-06T05:53:06;100600.88;;;15.43;97.56
75418;BME280;63997;52.112;5.420;2023-08-06T05:55:32;100595.19;;;15.44;97.44
75418;BME280;63997;52.112;5.420;2023-08-06T05:57:59;100600.56;;;15.44;97.50
75418;BME280;63997;52.112;5.420;2023-08-06T06:00:26;100595.19;;;15.44;97.35
75418;BME280;63997;52.112;5.420;2023-08-06T06:02:52;100606.69;;;15.45;97.22
75418;BME280;63997;52.112;5.420;2023-08-06T06:05:19;100613.59;;;15.46;97.47
75418;BME280;63997;52.112;5.420;2023-08-06T06:07:46;100608.59;;;15.44;97.63
75418;BME280;63997;52.112;5.420;2023-08-06T06:10:13;100611.69;;;15.46;97.63
75418;BME280;63997;52.112;5.420;2023-08-06T06:12:40;100618.25;;;15.49;97.63
75418;BME280;63997;52.112;5.420;2023-08-06T06:15:07;100615.97;;;15.51;97.87
75418;BME280;63997;52.112;5.420;2023-08-06T06:17:33;100621.25;;;15.47;97.64
75418;BME280;63997;52.112;5.420;2023-08-06T06:20:00;100614.00;;;15.48;97.79
75418;BME280;63997;52.112;5.420;2023-08-06T06:22:26;100628.97;;;15.49;97.75
75418;BME280;63997;52.112;5.420;2023-08-06T06:24:53;100631.22;;;15.47;97.91
75418;BME280;63997;52.112;5.420;2023-08-06T06:27:19;100625.47;;;15.48;98.14
75418;BME280;63997;52.112;5.420;2023-08-06T06:29:46;100629.75;;;15.49;97.93
75418;BME280;63997;52.112;5.420;2023-08-06T06:32:12;100635.88;;;15.50;97.98
75418;BME280;63997;52.112;5.420;2023-08-06T06:34:38;100634.31;;;15.49;97.99
75418;BME280;63997;52.112;5.420;2023-08-06T06:37:05;100644.25;;;15.48;97.98
75418;BME280;63997;52.112;5.420;2023-08-06T06:39:31;100642.00;;;15.50;98.37
75418;BME280;63997;52.112;5.420;2023-08-06T06:41:58;100646.63;;;15.53;98.49
75418;BME280;63997;52.112;5.420;2023-08-06T06:44:24;100649.03;;;15.58;98.36
75418;BME280;63997;52.112;5.420;2023-08-06T06:46:51;100648.25;;;15.58;98.17
75418;BME280;63997;52.112;5.420;2023-08-06T06:49:17;100645.19;;;15.59;98.40
75418;BME280;63997;52.112;5.420;2023-08-06T06:51:44;100653.25;;;15.59;98.29
75418;BME280;63997;52.112;5.420;2023-08-06T06:54:10;100646.00;;;15.60;98.40
75418;BME280;63997;52.112;5.420;2023-08-06T06:56:37;100648.31;;;15.61;98.44
75418;BME280;63997;52.112;5.420;2023-08-06T06:59:04;100652.56;;;15.63;98.47
75418;BME280;63997;52.112;5.420;2023-08-06T07:01:30;100656.09;;;15.67;98.70
75418;BME280;63997;52.112;5.420;2023-08-06T07:03:57;100649.19;;;15.66;98.43
75418;BME280;63997;52.112;5.420;2023-08-06T07:06:23;100655.25;;;15.63;98.21
75418;BME280;63997;52.112;5.420;2023-08-06T07:08:50;100653.34;;;15.63;98.07
75418;BME280;63997;52.112;5.420;2023-08-06T07:11:16;100655.66;;;15.65;98.47
75418;BME280;63997;52.112;5.420;2023-08-06T07:13:43;100659.13;;;15.65;98.28
75418;BME280;63997;52.112;5.420;2023-08-06T07:16:09;100648.31;;;15.61;98.13
75418;BME280;63997;52.112;5.420;2023-08-06T07:18:37;100657.56;;;15.64;98.21
75418;BME280;63997;52.112;5.420;2023-08-06T07:21:03;100654.44;;;15.62;97.92
75418;BME280;63997;52.112;5.420;2023-08-06T07:23:30;100658.28;;;15.61;98.16
75418;BME280;63997;52.112;5.420;2023-08-06T07:25:56;100670.91;;;15.60;98.08
75418;BME280;63997;52.112;5.420;2023-08-06T07:28:23;100663.28;;;15.63;98.45
75418;BME280;63997;52.112;5.420;2023-08-06T07:30:49;100665.28;;;15.66;98.43
75418;BME280;63997;52.112;5.420;2023-08-06T07:33:16;100667.97;;;15.66;98.12
75418;BME280;63997;52.112;5.420;2023-08-06T07:35:42;100676.41;;;15.68;98.39
75418;BME280;63997;52.112;5.420;2023-08-06T07:38:09;100667.31;;;15.72;98.16
75418;BME280;63997;52.112;5.420;2023-08-06T07:40:36;100670.38;;;15.74;98.18
75418;BME280;63997;52.112;5.420;2023-08-06T07:43:03;100666.19;;;15.77;97.91
75418;BME280;63997;52.112;5.420;2023-08-06T07:45:36;100677.72;;;15.77;97.79
75418;BME280;63997;52.112;5.420;2023-08-06T07:48:03;100677.38;;;15.79;97.81
75418;BME280;63997;52.112;5.420;2023-08-06T07:50:30;100672.78;;;15.79;97.85
75418;BME280;63997;52.112;5.420;2023-08-06T07:52:57;100677.78;;;15.81;98.32
75418;BME280;63997;52.112;5.420;2023-08-06T07:55:25;100679.31;;;15.82;98.25
75418;BME280;63997;52.112;5.420;2023-08-06T07:57:52;100675.53;;;15.83;98.52
75418;BME280;63997;52.112;5.420;2023-08-06T08:00:18;100673.25;;;15.85;98.51
75418;BME280;63997;52.112;5.420;2023-08-06T08:02:45;100675.53;;;15.83;98.28
75418;BME280;63997;52.112;5.420;2023-08-06T08:05:12;100674.69;;;15.79;98.07
75418;BME280;63997;52.112;5.420;2023-08-06T08:07:39;100673.06;;;15.74;97.76
75418;BME280;63997;52.112;5.420;2023-08-06T08:10:06;100679.47;;;15.66;97.12
75418;BME280;63997;52.112;5.420;2023-08-06T08:12:32;100682.25;;;15.54;96.14
75418;BME280;63997;52.112;5.420;2023-08-06T08:14:59;100679.81;;;15.45;96.40
75418;BME280;63997;52.112;5.420;2023-08-06T08:17:26;100681.66;;;15.41;96.79
75418;BME280;63997;52.112;5.420;2023-08-06T08:19:54;100690.81;;;15.40;97.12
75418;BME280;63997;52.112;5.420;2023-08-06T08:22:21;100686.88;;;15.34;96.77
75418;BME280;63997;52.112;5.420;2023-08-06T08:24:47;100696.84;;;15.33;96.97
75418;BME280;63997;52.112;5.420;2023-08-06T08:27:14;100698.25;;;15.27;96.48
75418;BME280;63997;52.112;5.420;2023-08-06T08:29:40;100695.91;;;15.26;97.00
75418;BME280;63997;52.112;5.420;2023-08-06T08:32:07;100697.41;;;15.23;96.86
75418;BME280;63997;52.112;5.420;2023-08-06T08:34:33;100697.69;;;15.18;96.41
75418;BME280;63997;52.112;5.420;2023-08-06T08:36:59;100703.69;;;15.12;96.30
75418;BME280;63997;52.112;5.420;2023-08-06T08:39:26;100707.03;;;15.08;96.45
75418;BME280;63997;52.112;5.420;2023-08-06T08:41:52;100703.25;;;15.10;96.63
75418;BME280;63997;52.112;5.420;2023-08-06T08:44:19;100705.16;;;15.09;96.55
75418;BME280;63997;52.112;5.420;2023-08-06T08:46:47;100711.22;;;15.06;96.60
75418;BME280;63997;52.112;5.420;2023-08-06T08:49:14;100701.97;;;15.03;96.60
75418;BME280;63997;52.112;5.420;2023-08-06T08:51:40;100707.69;;;15.02;96.29
75418;BME280;63997;52.112;5.420;2023-08-06T08:54:07;100710.00;;;15.03;96.54
75418;BME280;63997;52.112;5.420;2023-08-06T08:56:35;100703.09;;;15.02;96.94
75418;BME280;63997;52.112;5.420;2023-08-06T08:59:01;100713.81;;;15.02;97.00
75418;BME280;63997;52.112;5.420;2023-08-06T09:01:28;100710.00;;;15.03;96.64
75418;BME280;63997;52.112;5.420;2023-08-06T09:03:55;100716.16;;;15.04;97.19
75418;BME280;63997;52.112;5.420;2023-08-06T09:06:25;100726.88;;;15.04;97.53
75418;BME280;63997;52.112;5.420;2023-08-06T09:09:01;100732.16;;;15.00;96.50
75418;BME280;63997;52.112;5.420;2023-08-06T09:11:36;100724.81;;;14.97;96.90
75418;BME280;63997;52.112;5.420;2023-08-06T09:14:06;100733.28;;;14.99;97.14
75418;BME280;63997;52.112;5.420;2023-08-06T09:16:35;100733.59;;;14.98;96.61
75418;BME280;63997;52.112;5.420;2023-08-06T09:19:12;100735.88;;;14.96;96.65
75418;BME280;63997;52.112;5.420;2023-08-06T09:21:40;100740.53;;;14.99;97.06
75418;BME280;63997;52.112;5.420;2023-08-06T09:24:09;100742.88;;;15.00;97.10
75418;BME280;63997;52.112;5.420;2023-08-06T09:26:40;100746.66;;;14.99;97.37
75418;BME280;63997;52.112;5.420;2023-08-06T09:29:08;100746.66;;;14.99;97.12
75418;BME280;63997;52.112;5.420;2023-08-06T09:31:48;100757.03;;;15.01;97.81
75418;BME280;63997;52.112;5.420;2023-08-06T09:34:16;100755.84;;;14.98;97.60
75418;BME280;63997;52.112;5.420;2023-08-06T09:36:46;100766.19;;;15.00;97.95
75418;BME280;63997;52.112;5.420;2023-08-06T09:39:14;100768.94;;;15.03;97.97
75418;BME280;63997;52.112;5.420;2023-08-06T09:41:43;100765.56;;;15.06;98.00
75418;BME280;63997;52.112;5.420;2023-08-06T09:44:17;100775.59;;;15.10;97.64
75418;BME280;63997;52.112;5.420;2023-08-06T09:46:48;100778.31;;;15.13;97.52
75418;BME280;63997;52.112;5.420;2023-08-06T09:49:15;100777.97;;;15.15;97.79
75418;BME280;63997;52.112;5.420;2023-08-06T09:51:42;100784.53;;;15.17;97.77
75418;BME280;63997;52.112;5.420;2023-08-06T09:54:14;100782.22;;;15.16;97.72
75418;BME280;63997;52.112;5.420;2023-08-06T09:56:54;100777.69;;;15.20;97.37
75418;BME280;63997;52.112;5.420;2023-08-06T09:59:20;100797.66;;;15.22;97.20
75418;BME280;63997;52.112;5.420;2023-08-06T10:01:48;100792.31;;;15.22;97.21
75418;BME280;63997;52.112;5.420;2023-08-06T10:04:20;100790.03;;;15.24;97.39
75418;BME280;63997;52.112;5.420;2023-08-06T10:06:53;100797.44;;;15.31;97.45
75418;BME280;63997;52.112;5.420;2023-08-06T10:09:19;100797.88;;;15.33;97.75
75418;BME280;63997;52.112;5.420;2023-08-06T10:11:51;100798.66;;;15.33;97.04
75418;BME280;63997;52.112;5.420;2023-08-06T10:14:25;100807.88;;;15.36;97.14
75418;BME280;63997;52.112;5.420;2023-08-06T10:16:54;100809.44;;;15.37;97.30
75418;BME280;63997;52.112;5.420;2023-08-06T10:19:23;100812.56;;;15.39;97.08
75418;BME280;63997;52.112;5.420;2023-08-06T10:22:09;100813.69;;;15.38;96.84
75418;BME280;63997;52.112;5.420;2023-08-06T10:24:51;100812.56;;;15.39;96.38
75418;BME280;63997;52.112;5.420;2023-08-06T10:27:27;100811.00;;;15.38;95.87
75418;BME280;63997;52.112;5.420;2023-08-06T10:29:54;100812.56;;;15.39;95.19
75418;BME280;63997;52.112;5.420;2023-08-06T10:32:47;100816.38;;;15.38;95.54
75418;BME280;63997;52.112;5.420;2023-08-06T10:35:31;100811.00;;;15.38;95.51
75418;BME280;63997;52.112;5.420;2023-08-06T10:37:59;100814.19;;;15.44;95.71
75418;BME280;63997;52.112;5.420;2023-08-06T10:40:26;100818.81;;;15.47;95.30
75418;BME280;63997;52.112;5.420;2023-08-06T10:42:53;100807.41;;;15.50;95.82
75418;BME280;63997;52.112;5.420;2023-08-06T10:45:19;100810.63;;;15.59;96.13
75418;BME280;63997;52.112;5.420;2023-08-06T10:47:46;100805.03;;;15.64;96.69
75418;BME280;63997;52.112;5.420;2023-08-06T10:50:15;100810.47;;;15.68;96.79
75418;BME280;63997;52.112;5.420;2023-08-06T10:52:44;100810.88;;;15.70;96.98
75418;BME280;63997;52.112;5.420;2023-08-06T10:55:11;100817.50;;;15.76;96.83
75418;BME280;63997;52.112;5.420;2023-08-06T10:57:37;100817.28;;;15.84;97.06
75418;BME280;63997;52.112;5.420;2023-08-06T11:00:05;100816.22;;;15.89;96.66
75418;BME280;63997;52.112;5.420;2023-08-06T11:02:42;100816.66;;;15.91;95.95
75418;BME280;63997;52.112;5.420;2023-08-06T11:05:10;100822.00;;;15.91;95.29
75418;BME280;63997;52.112;5.420;2023-08-06T11:07:38;100822.69;;;15.88;94.42
75418;BME280;63997;52.112;5.420;2023-08-06T11:10:09;100827.72;;;15.90;94.19
75418;BME280;63997;52.112;5.420;2023-08-06T11:12:36;100826.59;;;15.91;94.99
75418;BME280;63997;52.112;5.420;2023-08-06T11:15:03;100825.53;;;15.95;95.00
75418;BME280;63997;52.112;5.420;2023-08-06T11:17:32;100830.63;;;16.00;95.04
75418;BME280;63997;52.112;5.420;2023-08-06T11:20:00;100830.25;;;16.02;94.77
75418;BME280;63997;52.112;5.420;2023-08-06T11:22:27;100833.84;;;16.09;94.75
75418;BME280;63997;52.112;5.420;2023-08-06T11:24:55;100838.06;;;16.10;94.61
75418;BME280;63997;52.112;5.420;2023-08-06T11:27:22;100837.34;;;16.13;94.42
75418;BME280;63997;52.112;5.420;2023-08-06T11:29:49;100840.03;;;16.13;94.78
75418;BME280;63997;52.112;5.420;2023-08-06T11:32:16;100845.41;;;16.13;93.14
75418;BME280;63997;52.112;5.420;2023-08-06T11:34:44;100846.72;;;16.00;93.39
75418;BME280;63997;52.112;5.420;2023-08-06T11:37:10;100847.41;;;15.97;92.42
75418;BME280;63997;52.112;5.420;2023-08-06T11:39:38;100855.03;;;15.95;93.53
75418;BME280;63997;52.112;5.420;2023-08-06T11:42:08;100848.34;;;15.85;92.50
75418;BME280;63997;52.112;5.420;2023-08-06T11:44:35;100862.94;;;15.69;91.87
75418;BME280;63997;52.112;5.420;2023-08-06T11:47:03;100859.00;;;15.63;92.15
75418;BME280;63997;52.112;5.420;2023-08-06T11:49:47;100864.63;;;15.57;92.10
75418;BME280;63997;52.112;5.420;2023-08-06T11:52:22;100869.19;;;15.57;92.23
75418;BME280;63997;52.112;5.420;2023-08-06T11:55:09;100857.91;;;15.48;92.75
75418;BME280;63997;52.112;5.420;2023-08-06T11:57:44;100854.88;;;15.49;93.03
75418;BME280;63997;52.112;5.420;2023-08-06T12:00:12;100856.84;;;15.52;93.49
75418;BME280;63997;52.112;5.420;2023-08-06T12:02:43;100861.44;;;15.52;93.60
75418;BME280;63997;52.112;5.420;2023-08-06T12:05:16;100864.19;;;15.55;94.28
75418;BME280;63997;52.112;5.420;2023-08-06T12:07:45;100859.53;;;15.52;94.02
75418;BME280;63997;52.112;5.420;2023-08-06T12:10:12;100866.38;;;15.50;94.12
75418;BME280;63997;52.112;5.420;2023-08-06T12:12:39;100861.06;;;15.53;94.27
75418;BME280;63997;52.112;5.420;2023-08-06T12:15:07;100868.78;;;15.55;94.76
75418;BME280;63997;52.112;5.420;2023-08-06T12:17:34;100866.09;;;15.55;94.95
75418;BME280;63997;52.112;5.420;2023-08-06T12:20:01;100871.03;;;15.53;95.18
75418;BME280;63997;52.112;5.420;2023-08-06T12:22:28;100876.38;;;15.53;95.18
75418;BME280;63997;52.112;5.420;2023-08-06T12:24:57;100888.75;;;15.57;95.25
75418;BME280;63997;52.112;5.420;2023-08-06T12:27:24;100886.06;;;15.57;94.83
75418;BME280;63997;52.112;5.420;2023-08-06T12:29:50;100886.41;;;15.56;95.03
75418;BME280;63997;52.112;5.420;2023-08-06T12:32:17;100886.59;;;15.63;95.76
75418;BME280;63997;52.112;5.420;2023-08-06T12:34:43;100886.66;;;15.67;95.83
75418;BME280;63997;52.112;5.420;2023-08-06T12:37:19;100893.59;;;15.68;95.61
75418;BME280;63997;52.112;5.420;2023-08-06T12:39:46;100897.31;;;15.63;95.17
75418;BME280;63997;52.112;5.420;2023-08-06T12:42:12;100893.16;;;15.66;95.32
75418;BME280;63997;52.112;5.420;2023-08-06T12:44:39;100900.06;;;15.67;95.38
75418;BME280;63997;52.112;5.420;2023-08-06T12:47:07;100907.41;;;15.70;96.02
75418;BME280;63997;52.112;5.420;2023-08-06T12:49:35;100909.81;;;15.75;95.93
75418;BME280;63997;52.112;5.420;2023-08-06T12:52:09;100912.97;;;15.80;96.17
75418;BME280;63997;52.112;5.420;2023-08-06T12:54:36;100907.69;;;15.84;96.18
75418;BME280;63997;52.112;5.420;2023-08-06T12:57:05;100912.28;;;15.83;95.70
75418;BME280;63997;52.112;5.420;2023-08-06T12:59:32;100921.53;;;15.86;96.14